Pangnirtung, Canada
Current Conditions -  °F | °C
As of 3:00 PM on Tuesday 21 Oct 2014 (Local Time) from CYVM Reporting Station
Overcast Overcast  
Wind Chill: 25°   Ceiling: 3700
Heat Index: 25°   Visibility: 15mi
Dew Point: 18°   Wind: 3mph
Humidity: 74%   Direction: 150°SSE
Pressure: 29.63"   Gusts: NA
Location:  66.15°N, 65.69°W
Report Text: CYVM 211800Z 15003KT 15SM SCT030 BKN037 OVC090 M04/M08 A2963 RMK SC3SC4AC1 ACSL S+SW SLP035
Loading
Personal Weather Stations






























Interactive Weather Map
Tropical Storm Tracking
New forecast layout! Learn more

10-Day Weather Forecast

Advertisements
Track Severe Weather on mobile